createdAt,value
2022-11-16T00:02:05.798Z,10.70
2022-11-16T00:04:32.312Z,10.70
2022-11-16T00:06:58.952Z,10.60
2022-11-16T00:09:28.615Z,10.70
2022-11-16T00:11:59.124Z,10.70
2022-11-16T00:14:27.470Z,10.60
2022-11-16T00:16:54.341Z,10.70
2022-11-16T00:19:20.838Z,10.70
2022-11-16T00:21:47.422Z,10.70
2022-11-16T00:24:14.936Z,10.70
2022-11-16T00:26:41.943Z,10.70
2022-11-16T00:29:15.268Z,10.70
2022-11-16T00:31:42.229Z,10.60
2022-11-16T00:34:08.689Z,10.60
2022-11-16T00:36:35.198Z,10.60
2022-11-16T00:39:01.639Z,10.50
2022-11-16T00:41:28.069Z,10.50
2022-11-16T00:43:54.522Z,10.50
2022-11-16T00:46:21.041Z,10.50
2022-11-16T00:48:47.574Z,10.50
2022-11-16T00:51:14.032Z,10.40
2022-11-16T00:53:40.508Z,10.40
2022-11-16T00:56:07.147Z,10.40
2022-11-16T00:58:33.835Z,10.40
2022-11-16T01:01:07.208Z,10.40
2022-11-16T01:03:34.785Z,10.30
2022-11-16T01:06:02.430Z,10.30
2022-11-16T01:08:28.894Z,10.30
2022-11-16T01:10:55.327Z,10.30
2022-11-16T01:13:21.807Z,10.20
2022-11-16T01:15:48.391Z,10.20
2022-11-16T01:18:14.813Z,10.20
2022-11-16T01:20:41.315Z,10.20
2022-11-16T01:23:07.825Z,10.20
2022-11-16T01:25:34.279Z,10.10
2022-11-16T01:28:00.711Z,10.10
2022-11-16T01:30:27.268Z,10.10
2022-11-16T01:32:53.772Z,10.10
2022-11-16T01:35:20.356Z,10.10
2022-11-16T01:37:46.849Z,10.10
2022-11-16T01:40:14.151Z,10.10
2022-11-16T01:42:41.218Z,10.10
2022-11-16T01:45:21.389Z,10.00
2022-11-16T01:47:47.961Z,10.00
2022-11-16T01:50:15.574Z,10.00
2022-11-16T01:52:45.997Z,10.00
2022-11-16T01:55:12.885Z,10.00
2022-11-16T01:57:40.768Z,10.00
2022-11-16T02:00:08.250Z,10.00
2022-11-16T02:02:34.764Z,9.90
2022-11-16T02:05:02.327Z,9.90
2022-11-16T02:08:03.317Z,9.90
2022-11-16T02:10:48.323Z,9.90
2022-11-16T02:13:23.579Z,9.90
2022-11-16T02:16:16.433Z,9.90
2022-11-16T02:19:01.386Z,9.90
2022-11-16T02:21:27.818Z,9.90
2022-11-16T02:24:00.528Z,9.90
2022-11-16T02:26:26.982Z,9.90
2022-11-16T02:29:06.142Z,9.90
2022-11-16T02:31:41.936Z,10.00
2022-11-16T02:34:10.032Z,9.90
2022-11-16T02:36:38.767Z,9.90
2022-11-16T02:39:07.444Z,9.90
2022-11-16T02:41:35.357Z,9.90
2022-11-16T02:44:04.105Z,9.90
2022-11-16T02:46:31.971Z,9.90
2022-11-16T02:49:01.163Z,9.90
2022-11-16T02:51:28.875Z,9.90
2022-11-16T02:54:12.663Z,9.90
2022-11-16T02:56:41.922Z,9.90
2022-11-16T02:59:10.292Z,9.80
2022-11-16T03:01:41.279Z,9.90
2022-11-16T03:04:12.323Z,9.80
2022-11-16T03:06:39.483Z,9.90
2022-11-16T03:09:08.460Z,9.90
2022-11-16T03:11:54.717Z,9.80
2022-11-16T03:14:22.917Z,9.80
2022-11-16T03:16:52.679Z,9.80
2022-11-16T03:19:25.494Z,9.80
2022-11-16T03:21:55.316Z,9.80
2022-11-16T03:24:21.863Z,9.80
2022-11-16T03:26:55.587Z,9.80
2022-11-16T03:29:32.897Z,9.90
2022-11-16T03:32:22.715Z,9.80
2022-11-16T03:34:54.470Z,9.90
2022-11-16T03:37:21.707Z,9.90
2022-11-16T03:39:48.643Z,9.90
2022-11-16T03:42:15.537Z,9.90
2022-11-16T03:44:44.409Z,9.90
2022-11-16T03:47:11.623Z,9.90
2022-11-16T03:49:38.128Z,9.90
2022-11-16T03:52:04.952Z,9.90
2022-11-16T03:54:31.412Z,9.80
2022-11-16T03:56:57.858Z,9.90
2022-11-16T03:59:24.282Z,9.90
2022-11-16T04:01:50.866Z,9.80
2022-11-16T04:04:35.827Z,9.90
2022-11-16T04:07:20.998Z,9.90
2022-11-16T04:10:05.867Z,9.90
2022-11-16T04:12:50.959Z,9.90
2022-11-16T04:15:35.747Z,9.90
2022-11-16T04:18:20.801Z,9.90
2022-11-16T04:21:06.269Z,10.00
2022-11-16T04:23:51.363Z,10.00
2022-11-16T04:26:17.802Z,10.00
2022-11-16T04:28:44.311Z,10.00
2022-11-16T04:31:29.425Z,10.00
2022-11-16T04:34:14.434Z,10.10
2022-11-16T04:36:59.406Z,10.10
2022-11-16T04:39:25.839Z,10.10
2022-11-16T04:42:10.759Z,10.10
2022-11-16T04:44:55.726Z,10.10
2022-11-16T04:47:22.316Z,10.20
2022-11-16T04:49:48.775Z,10.20
2022-11-16T04:52:15.306Z,10.20
2022-11-16T04:54:41.739Z,10.20
2022-11-16T04:57:08.194Z,10.30
2022-11-16T04:59:34.746Z,10.30
2022-11-16T05:02:10.325Z,10.30
2022-11-16T05:04:41.607Z,10.30
2022-11-16T05:07:11.013Z,10.30
2022-11-16T05:09:41.283Z,10.40
2022-11-16T05:12:07.979Z,10.40
2022-11-16T05:14:34.458Z,10.40
2022-11-16T05:17:00.894Z,10.50
2022-11-16T05:19:46.272Z,10.40
2022-11-16T05:22:12.693Z,10.50
2022-11-16T05:24:39.162Z,10.50
2022-11-16T05:27:06.635Z,10.50
2022-11-16T05:29:33.460Z,10.50
2022-11-16T05:32:00.467Z,10.50
2022-11-16T05:34:27.223Z,10.50
2022-11-16T05:36:53.682Z,10.50
2022-11-16T05:39:20.384Z,10.50
2022-11-16T05:41:47.852Z,10.60
2022-11-16T05:44:14.978Z,10.50
2022-11-16T05:46:41.699Z,10.50
2022-11-16T05:49:08.392Z,10.50
2022-11-16T05:51:39.087Z,10.50
2022-11-16T05:54:05.987Z,10.60
2022-11-16T05:56:33.135Z,10.60
2022-11-16T05:58:59.796Z,10.60
2022-11-16T06:01:26.669Z,10.60
2022-11-16T06:03:53.731Z,10.60
2022-11-16T06:06:20.473Z,10.60
2022-11-16T06:08:47.008Z,10.60
2022-11-16T06:11:13.781Z,10.60
2022-11-16T06:13:40.295Z,10.50
2022-11-16T06:16:06.960Z,10.60
2022-11-16T06:18:36.640Z,10.50
2022-11-16T06:21:03.443Z,10.50
2022-11-16T06:23:29.867Z,10.50
2022-11-16T06:25:56.499Z,10.50
2022-11-16T06:28:23.271Z,10.50
2022-11-16T06:30:49.773Z,10.50
2022-11-16T06:33:16.666Z,10.50
2022-11-16T06:35:43.242Z,10.50
2022-11-16T06:38:09.834Z,10.50
2022-11-16T06:40:37.703Z,10.50
2022-11-16T06:43:04.182Z,10.50
2022-11-16T06:45:30.640Z,10.50
2022-11-16T06:47:57.069Z,10.50
2022-11-16T06:50:23.542Z,10.50
2022-11-16T06:52:50.002Z,10.50
2022-11-16T06:55:16.750Z,10.50
2022-11-16T06:57:43.267Z,10.50
2022-11-16T07:00:10.787Z,10.50
2022-11-16T07:02:37.744Z,10.50
2022-11-16T07:05:04.663Z,10.50
2022-11-16T07:07:31.194Z,10.50
2022-11-16T07:09:57.736Z,10.50
2022-11-16T07:12:24.217Z,10.50
2022-11-16T07:14:50.823Z,10.50
2022-11-16T07:17:17.259Z,10.50
2022-11-16T07:19:43.742Z,10.50
2022-11-16T07:22:10.191Z,10.50
2022-11-16T07:24:36.667Z,10.60
2022-11-16T07:27:03.135Z,10.60
2022-11-16T07:29:30.642Z,10.60
2022-11-16T07:31:57.106Z,10.60
2022-11-16T07:34:23.573Z,10.60
2022-11-16T07:36:50.053Z,10.60
2022-11-16T07:39:16.627Z,10.60
2022-11-16T07:41:44.141Z,10.60
2022-11-16T07:44:12.221Z,10.60
2022-11-16T07:46:47.934Z,10.60
2022-11-16T07:49:15.875Z,10.60
2022-11-16T07:51:42.743Z,10.60
2022-11-16T07:54:11.549Z,10.60
2022-11-16T07:56:38.068Z,10.70
2022-11-16T07:59:05.927Z,10.70
2022-11-16T08:01:33.043Z,10.80
2022-11-16T08:04:01.772Z,10.90
2022-11-16T08:06:29.170Z,11.00
2022-11-16T08:08:58.612Z,11.10
2022-11-16T08:11:25.730Z,11.10
2022-11-16T08:13:52.329Z,11.40
2022-11-16T08:16:20.640Z,11.70
2022-11-16T08:18:47.341Z,11.90
2022-11-16T08:21:15.016Z,12.40
2022-11-16T08:23:41.978Z,12.80
2022-11-16T08:26:09.940Z,12.90
2022-11-16T08:28:37.053Z,12.80
2022-11-16T08:31:10.765Z,12.70
2022-11-16T08:33:37.216Z,12.90
2022-11-16T08:36:08.158Z,12.80
2022-11-16T08:38:38.560Z,13.00
2022-11-16T08:41:05.107Z,13.90
2022-11-16T08:43:33.673Z,13.70
2022-11-16T08:46:00.366Z,13.50
2022-11-16T08:48:26.815Z,13.40
2022-11-16T08:51:16.427Z,13.40
2022-11-16T08:53:39.905Z,13.50
2022-11-16T08:56:08.635Z,13.80
2022-11-16T08:58:38.307Z,13.90
2022-11-16T09:01:09.879Z,13.70
2022-11-16T09:03:37.755Z,13.90
2022-11-16T09:06:04.613Z,13.60
2022-11-16T09:08:31.480Z,13.20
2022-11-16T09:10:58.162Z,12.80
2022-11-16T09:13:25.245Z,12.90
2022-11-16T09:16:01.451Z,13.30
2022-11-16T09:18:28.403Z,14.10
2022-11-16T09:20:55.080Z,15.20
2022-11-16T09:23:25.349Z,16.50
2022-11-16T09:25:52.642Z,18.00
2022-11-16T09:28:19.800Z,19.50
2022-11-16T09:30:47.649Z,19.20
2022-11-16T09:33:14.146Z,18.20
2022-11-16T09:35:40.754Z,17.30
2022-11-16T09:38:09.702Z,17.00
2022-11-16T09:40:37.821Z,17.20
2022-11-16T09:43:16.611Z,17.70
2022-11-16T09:45:46.801Z,18.30
2022-11-16T09:48:14.591Z,19.40
2022-11-16T09:50:46.666Z,19.90
2022-11-16T09:53:32.427Z,20.10
2022-11-16T09:56:04.139Z,20.40
2022-11-16T09:58:31.793Z,20.60
2022-11-16T10:01:18.641Z,20.60
2022-11-16T10:03:47.643Z,20.40
2022-11-16T10:06:19.580Z,20.50
2022-11-16T10:08:51.589Z,20.80
2022-11-16T10:11:25.719Z,21.30
2022-11-16T10:14:11.020Z,21.00
2022-11-16T10:16:44.971Z,20.10
2022-11-16T10:19:17.592Z,18.80
2022-11-16T10:21:55.830Z,18.00
2022-11-16T10:24:35.519Z,17.50
2022-11-16T10:27:25.079Z,17.30
2022-11-16T10:29:59.303Z,17.20
2022-11-16T10:32:30.785Z,17.10
2022-11-16T10:35:01.736Z,16.90
2022-11-16T10:37:30.296Z,16.70
2022-11-16T10:39:57.083Z,16.40
2022-11-16T10:42:36.266Z,16.10
2022-11-16T10:45:08.023Z,15.90
2022-11-16T10:47:44.610Z,15.70
2022-11-16T10:50:23.164Z,15.70
2022-11-16T10:52:49.616Z,15.60
2022-11-16T10:55:16.157Z,15.30
2022-11-16T10:57:59.692Z,15.10
2022-11-16T11:00:36.542Z,14.90
2022-11-16T11:03:03.060Z,14.60
2022-11-16T11:05:29.700Z,14.50
2022-11-16T11:08:01.513Z,14.40
2022-11-16T11:10:32.562Z,14.10
2022-11-16T11:13:11.308Z,13.90
2022-11-16T11:15:38.619Z,13.70
2022-11-16T11:18:23.401Z,13.50
2022-11-16T11:20:51.815Z,13.40
2022-11-16T11:23:20.323Z,13.20
2022-11-16T11:25:53.792Z,13.00
2022-11-16T11:28:29.924Z,13.00
2022-11-16T11:31:06.798Z,12.90
2022-11-16T11:33:38.048Z,12.90
2022-11-16T11:36:18.579Z,12.80
2022-11-16T11:39:14.487Z,12.80
2022-11-16T11:41:42.551Z,12.80
2022-11-16T11:44:19.025Z,12.90
2022-11-16T11:47:35.217Z,13.00
2022-11-16T11:49:40.618Z,13.20
2022-11-16T11:52:27.597Z,13.20
2022-11-16T11:54:54.599Z,13.10
2022-11-16T11:57:23.011Z,13.00
2022-11-16T11:59:52.068Z,12.80
2022-11-16T12:02:21.347Z,12.70
2022-11-16T12:05:12.202Z,12.60
2022-11-16T12:07:57.463Z,12.70
2022-11-16T12:10:31.941Z,12.60
2022-11-16T12:13:13.455Z,12.60
2022-11-16T12:15:49.114Z,12.50
2022-11-16T12:18:25.872Z,12.50
2022-11-16T12:21:11.241Z,12.40
2022-11-16T12:23:50.056Z,12.50
2022-11-16T12:26:16.474Z,12.50
2022-11-16T12:28:51.326Z,12.50
2022-11-16T12:31:23.719Z,12.50
2022-11-16T12:33:56.323Z,12.50
2022-11-16T12:36:33.234Z,12.50
2022-11-16T12:39:09.223Z,12.40
2022-11-16T12:41:35.663Z,12.40
2022-11-16T12:44:08.383Z,12.50
2022-11-16T12:46:47.051Z,12.60
2022-11-16T12:49:28.775Z,12.90
2022-11-16T12:52:04.390Z,13.30
2022-11-16T12:54:33.855Z,13.60
2022-11-16T12:57:16.199Z,13.70
2022-11-16T12:59:42.698Z,13.50
2022-11-16T13:02:25.235Z,13.50
2022-11-16T13:04:57.466Z,13.30
2022-11-16T13:07:30.998Z,13.10
2022-11-16T13:10:01.025Z,12.90
2022-11-16T13:12:27.896Z,12.80
2022-11-16T13:14:55.915Z,12.60
2022-11-16T13:17:24.434Z,12.50
2022-11-16T13:20:03.651Z,12.50
2022-11-16T13:22:31.991Z,12.50
2022-11-16T13:24:58.795Z,12.40
2022-11-16T13:27:35.929Z,12.50
2022-11-16T13:30:05.575Z,12.50
2022-11-16T13:32:32.002Z,12.60
2022-11-16T13:34:59.785Z,12.60
2022-11-16T13:37:52.639Z,12.70
2022-11-16T13:40:29.015Z,12.90
2022-11-16T13:43:25.087Z,13.10
2022-11-16T13:45:51.557Z,13.10
2022-11-16T13:48:22.621Z,13.00
2022-11-16T13:50:51.348Z,13.00
2022-11-16T13:56:15.982Z,13.00
2022-11-16T13:58:52.373Z,13.00
2022-11-16T14:01:19.014Z,13.10
2022-11-16T14:03:46.956Z,13.10
2022-11-16T14:06:13.358Z,13.10
2022-11-16T14:08:39.804Z,13.10
2022-11-16T14:11:38.941Z,13.10
2022-11-16T14:14:06.237Z,13.10
2022-11-16T14:16:42.787Z,13.10
2022-11-16T14:19:28.090Z,13.10
2022-11-16T14:22:01.903Z,13.00
2022-11-16T14:24:32.883Z,12.90
2022-11-16T14:27:08.221Z,12.80
2022-11-16T14:29:34.678Z,12.70
2022-11-16T14:32:02.321Z,12.70
2022-11-16T14:34:48.626Z,12.70
2022-11-16T14:37:29.170Z,12.60
2022-11-16T14:40:06.862Z,12.60
2022-11-16T14:42:54.393Z,12.50
2022-11-16T14:45:24.683Z,12.50
2022-11-16T14:47:51.210Z,12.50
2022-11-16T14:50:24.762Z,12.50
2022-11-16T14:52:52.905Z,12.50
2022-11-16T14:55:20.832Z,12.40
2022-11-16T14:57:47.347Z,12.40
2022-11-16T15:00:17.324Z,12.30
2022-11-16T15:02:51.727Z,12.30
2022-11-16T15:05:20.907Z,12.20
2022-11-16T15:07:49.713Z,12.20
2022-11-16T15:10:18.155Z,12.20
2022-11-16T15:12:51.259Z,12.10
2022-11-16T15:15:28.471Z,12.20
2022-11-16T15:18:03.937Z,12.10
2022-11-16T15:20:35.243Z,12.10
2022-11-16T15:23:02.471Z,12.10
2022-11-16T15:25:41.499Z,12.00
2022-11-16T15:28:15.686Z,12.00
2022-11-16T15:30:44.894Z,12.00
2022-11-16T15:33:15.837Z,11.80
2022-11-16T15:35:42.293Z,11.50
2022-11-16T15:38:20.410Z,11.40
2022-11-16T15:40:57.420Z,11.20
2022-11-16T15:43:25.767Z,11.10
2022-11-16T15:45:52.689Z,11.00
2022-11-16T15:48:20.562Z,10.90
2022-11-16T15:51:03.004Z,10.90
2022-11-16T15:53:35.761Z,10.80
2022-11-16T15:56:03.422Z,10.70
2022-11-16T15:58:32.032Z,10.60
2022-11-16T16:00:59.311Z,10.60
2022-11-16T16:03:31.268Z,10.50
2022-11-16T16:05:58.097Z,10.50
2022-11-16T16:08:30.051Z,10.50
2022-11-16T16:11:04.665Z,10.50
2022-11-16T16:13:33.047Z,10.40
2022-11-16T16:16:18.884Z,10.30
2022-11-16T16:18:45.429Z,10.30
2022-11-16T16:21:12.875Z,10.30
2022-11-16T16:23:50.056Z,10.30
2022-11-16T16:26:17.129Z,10.30
2022-11-16T16:28:43.723Z,10.30
2022-11-16T16:31:11.103Z,10.30
2022-11-16T16:33:38.079Z,10.30
2022-11-16T16:36:05.038Z,10.20
2022-11-16T16:38:31.678Z,10.20
2022-11-16T16:41:02.475Z,10.20
2022-11-16T16:43:29.558Z,10.20
2022-11-16T16:45:56.333Z,10.20
2022-11-16T16:48:22.846Z,10.20
2022-11-16T16:50:49.358Z,10.20
2022-11-16T16:53:15.823Z,10.20
2022-11-16T16:55:42.807Z,10.20
2022-11-16T16:58:13.133Z,10.20
2022-11-16T17:00:40.583Z,10.10
2022-11-16T17:03:07.086Z,10.20
2022-11-16T17:05:33.888Z,10.10
2022-11-16T17:08:00.524Z,10.10
2022-11-16T17:10:26.965Z,10.10
2022-11-16T17:12:53.894Z,10.10
2022-11-16T17:15:20.387Z,10.10
2022-11-16T17:17:46.928Z,10.10
2022-11-16T17:20:13.783Z,10.10
2022-11-16T17:22:41.696Z,10.10
2022-11-16T17:25:08.875Z,10.10
2022-11-16T17:27:35.331Z,10.10
2022-11-16T17:30:01.799Z,10.20
2022-11-16T17:32:28.393Z,10.20
2022-11-16T17:34:54.823Z,10.20
2022-11-16T17:37:21.547Z,10.20
2022-11-16T17:39:47.994Z,10.20
2022-11-16T17:42:14.456Z,10.20
2022-11-16T17:44:40.895Z,10.20
2022-11-16T17:47:07.438Z,10.20
2022-11-16T17:49:33.920Z,10.20
2022-11-16T17:52:01.533Z,10.20
2022-11-16T17:54:28.146Z,10.20
2022-11-16T17:56:54.663Z,10.20
2022-11-16T17:59:24.991Z,10.20
2022-11-16T18:01:54.487Z,10.30
2022-11-16T18:04:20.964Z,10.30
2022-11-16T18:06:47.401Z,10.30
2022-11-16T18:09:13.862Z,10.40
2022-11-16T18:11:40.360Z,10.40
2022-11-16T18:14:07.292Z,10.40
2022-11-16T18:16:33.969Z,10.40
2022-11-16T18:19:04.869Z,10.40
2022-11-16T18:21:33.548Z,10.40
2022-11-16T18:24:00.240Z,10.40
2022-11-16T18:26:26.679Z,10.40
2022-11-16T18:28:53.712Z,10.40
2022-11-16T18:31:21.327Z,10.40
2022-11-16T18:33:50.788Z,10.30
2022-11-16T18:36:18.410Z,10.40
2022-11-16T18:38:45.219Z,10.30
2022-11-16T18:41:11.632Z,10.40
2022-11-16T18:43:39.168Z,10.30
2022-11-16T18:46:05.779Z,10.30
2022-11-16T18:48:32.367Z,10.40
2022-11-16T18:51:02.236Z,10.30
2022-11-16T18:53:29.619Z,10.30
2022-11-16T18:55:58.033Z,10.30
2022-11-16T18:58:49.253Z,10.30
2022-11-16T19:01:13.658Z,10.40
2022-11-16T19:03:40.123Z,10.40
2022-11-16T19:06:10.274Z,10.50
2022-11-16T19:08:37.843Z,10.50
2022-11-16T19:11:08.711Z,10.60
2022-11-16T19:13:35.634Z,10.60
2022-11-16T19:16:02.455Z,10.60
2022-11-16T19:18:28.986Z,10.60
2022-11-16T19:21:11.958Z,10.70
2022-11-16T19:23:39.757Z,10.70
2022-11-16T19:26:06.412Z,10.70
2022-11-16T19:28:36.926Z,10.70
2022-11-16T19:31:05.971Z,10.80
2022-11-16T19:33:32.681Z,10.80
2022-11-16T19:35:59.378Z,10.70
2022-11-16T19:38:25.895Z,10.70
2022-11-16T19:40:52.333Z,10.80
2022-11-16T19:43:19.955Z,10.70
2022-11-16T19:45:46.416Z,10.80
2022-11-16T19:48:12.899Z,10.70
2022-11-16T19:50:39.378Z,10.80
2022-11-16T19:53:05.862Z,10.70
2022-11-16T19:55:32.532Z,10.70
2022-11-16T19:57:59.117Z,10.60
2022-11-16T20:00:25.636Z,10.60
2022-11-16T20:02:56.016Z,10.60
2022-11-16T20:05:23.247Z,10.60
2022-11-16T20:07:49.835Z,10.50
2022-11-16T20:10:16.575Z,10.50
2022-11-16T20:12:43.346Z,10.50
2022-11-16T20:15:09.878Z,10.50
2022-11-16T20:17:36.322Z,10.50
2022-11-16T20:20:02.799Z,10.50
2022-11-16T20:22:29.246Z,10.50
2022-11-16T20:24:55.670Z,10.50
2022-11-16T20:27:22.257Z,10.50
2022-11-16T20:29:48.744Z,10.50
2022-11-16T20:32:15.353Z,10.50
2022-11-16T20:34:43.982Z,10.40
2022-11-16T20:37:10.483Z,10.40
2022-11-16T20:39:37.038Z,10.40
2022-11-16T20:42:03.603Z,10.30
2022-11-16T20:44:30.855Z,10.20
2022-11-16T20:46:57.290Z,10.20
2022-11-16T20:49:23.834Z,10.10
2022-11-16T20:51:51.334Z,10.00
2022-11-16T20:54:17.898Z,10.00
2022-11-16T20:56:44.666Z,9.90
2022-11-16T20:59:11.137Z,9.90
2022-11-16T21:01:37.586Z,9.80
2022-11-16T21:04:04.901Z,9.70
2022-11-16T21:06:31.987Z,9.60
2022-11-16T21:08:58.656Z,9.60
2022-11-16T21:11:26.450Z,9.60
2022-11-16T21:14:11.643Z,9.60
2022-11-16T21:16:38.403Z,9.60
2022-11-16T21:19:05.240Z,9.50
2022-11-16T21:21:32.128Z,9.50
2022-11-16T21:23:58.646Z,9.40
2022-11-16T21:26:26.706Z,9.40
2022-11-16T21:28:53.523Z,9.40
2022-11-16T21:31:21.036Z,9.30
2022-11-16T21:33:47.954Z,9.30
2022-11-16T21:36:15.762Z,9.30
2022-11-16T21:38:42.645Z,9.30
2022-11-16T21:41:13.411Z,9.30
2022-11-16T21:43:42.638Z,9.30
2022-11-16T21:46:19.337Z,9.30
2022-11-16T21:48:47.750Z,9.30
2022-11-16T21:51:18.372Z,9.30
2022-11-16T21:53:45.019Z,9.30
2022-11-16T21:56:12.674Z,9.40
2022-11-16T21:58:39.936Z,9.40
2022-11-16T22:01:06.650Z,9.50
2022-11-16T22:03:33.402Z,9.50
2022-11-16T22:06:19.930Z,9.60
2022-11-16T22:08:46.761Z,9.60
2022-11-16T22:11:13.747Z,9.60
2022-11-16T22:13:40.278Z,9.60
2022-11-16T22:16:10.860Z,9.70
2022-11-16T22:18:37.670Z,9.70
2022-11-16T22:21:04.259Z,9.60
2022-11-16T22:23:31.259Z,9.70
2022-11-16T22:26:04.661Z,9.60
2022-11-16T22:28:32.044Z,9.60
2022-11-16T22:30:59.533Z,9.60
2022-11-16T22:33:26.072Z,9.60
2022-11-16T22:35:52.498Z,9.60
2022-11-16T22:38:18.964Z,9.60
2022-11-16T22:40:52.207Z,9.60
2022-11-16T22:43:23.256Z,9.60
2022-11-16T22:45:49.705Z,9.60
2022-11-16T22:48:16.358Z,9.60
2022-11-16T22:50:43.257Z,9.60
2022-11-16T22:53:10.178Z,9.60
2022-11-16T22:55:38.678Z,9.70
2022-11-16T22:58:05.661Z,9.70
2022-11-16T23:00:36.239Z,9.70
2022-11-16T23:03:05.556Z,9.70
2022-11-16T23:05:32.018Z,9.70
2022-11-16T23:07:58.578Z,9.70
2022-11-16T23:10:25.063Z,9.70
2022-11-16T23:13:10.149Z,9.70
2022-11-16T23:15:48.706Z,9.70
2022-11-16T23:18:15.481Z,9.70
2022-11-16T23:21:00.463Z,9.70
2022-11-16T23:23:45.641Z,9.70
2022-11-16T23:26:32.543Z,9.70
2022-11-16T23:28:59.542Z,9.70
2022-11-16T23:31:26.041Z,9.70
2022-11-16T23:33:52.566Z,9.70
2022-11-16T23:36:19.349Z,9.70
2022-11-16T23:38:46.207Z,9.70
2022-11-16T23:41:39.352Z,9.70
2022-11-16T23:44:06.143Z,9.60
2022-11-16T23:46:33.211Z,9.60
2022-11-16T23:49:00.688Z,9.60
2022-11-16T23:51:27.256Z,9.60
2022-11-16T23:53:54.013Z,9.60
2022-11-16T23:56:21.118Z,9.60
2022-11-16T23:58:47.941Z,9.70
